Time;durP1;ratioP1;P1;durP2;ratioP2;P2;SDS_P1;SDS_P2;PMS_P1;PMS_P2;Temp;Humidity;BMP_temperature;BMP_pressure;BME280_temperature;BME280_humidity;BME280_pressure;Samples;Min_cycle;Max_cycle;Signal;HPM_P1;HPM_P2
2023/07/27 00:03:55;;;;;;;0.70;0.40;;;;;;;;;;12982237;22;20359;-88
2023/07/27 00:09:00;;;;;;;1.45;0.50;;;;;;;;;;12980099;22;20699;-89
2023/07/27 00:14:03;;;;;;;0.70;0.30;;;;;;;;;;12982827;22;20394;-88
2023/07/27 00:19:05;;;;;;;1.10;0.30;;;;;;;;;;12966967;22;20440;-89
2023/07/27 00:24:09;;;;;;;0.30;0.30;;;;;;;;;;12964796;22;20362;-89
2023/07/27 00:29:11;;;;;;;1.30;0.50;;;;;;;;;;12960643;22;20374;-88
2023/07/27 00:34:14;;;;;;;0.53;0.30;;;;;;;;;;12974890;22;20450;-88
2023/07/27 00:39:17;;;;;;;0.30;0.30;;;;;;;;;;12980669;22;20359;-88
2023/07/27 00:44:19;;;;;;;0.47;0.40;;;;;;;;;;12978019;22;20362;-87
2023/07/27 00:49:22;;;;;;;0.60;0.30;;;;;;;;;;12960620;22;20378;-91
2023/07/27 00:54:26;;;;;;;0.60;0.40;;;;;;;;;;12961847;22;20371;-91
2023/07/27 00:59:29;;;;;;;0.23;0.23;;;;;;;;;;12980754;22;20366;-91
2023/07/27 01:04:32;;;;;;;0.80;0.30;;;;;;;;;;12979929;22;20420;-90
2023/07/27 01:09:36;;;;;;;0.57;0.30;;;;;;;;;;12957810;22;20408;-91
2023/07/27 01:14:44;;;;;;;0.80;0.50;;;;;;;;;;12963747;22;20696;-90
2023/07/27 01:20:05;;;;;;;0.90;0.40;;;;;;;;;;12949812;22;20382;-91
2023/07/27 01:25:21;;;;;;;0.95;0.40;;;;;;;;;;12977031;22;20367;-91
2023/07/27 01:30:48;;;;;;;0.82;0.50;;;;;;;;;;12980027;22;20378;-91
2023/07/27 01:36:01;;;;;;;1.05;0.40;;;;;;;;;;12970732;22;20472;-91
2023/07/27 01:41:05;;;;;;;0.43;0.43;;;;;;;;;;12961448;22;20358;-91
2023/07/27 01:46:10;;;;;;;0.52;0.43;;;;;;;;;;12964391;22;20370;-91
2023/07/27 01:51:13;;;;;;;0.50;0.30;;;;;;;;;;12965719;22;20382;-91
2023/07/27 01:56:16;;;;;;;0.75;0.52;;;;;;;;;;12983937;22;20633;-91
2023/07/27 02:01:20;;;;;;;1.83;0.75;;;;;;;;;;12983762;22;20436;-92
2023/07/27 02:06:23;;;;;;;1.10;0.70;;;;;;;;;;12963117;22;20450;-91
2023/07/27 02:11:27;;;;;;;1.02;0.77;;;;;;;;;;12941764;22;20382;-91
2023/07/27 02:16:43;;;;;;;1.63;0.80;;;;;;;;;;13004127;22;20392;-91
2023/07/27 02:21:47;;;;;;;1.17;0.67;;;;;;;;;;12980255;22;20358;-91
2023/07/27 02:26:50;;;;;;;1.30;0.70;;;;;;;;;;12990176;22;20408;-92
2023/07/27 02:31:53;;;;;;;1.30;0.60;;;;;;;;;;12966682;22;20440;-90
2023/07/27 02:36:56;;;;;;;1.90;0.50;;;;;;;;;;12971684;22;20430;-91
2023/07/27 02:41:58;;;;;;;1.08;0.80;;;;;;;;;;12984278;22;20774;-91
2023/07/27 02:47:01;;;;;;;1.60;0.80;;;;;;;;;;12970996;22;20472;-89
2023/07/27 02:52:04;;;;;;;1.20;0.55;;;;;;;;;;12984456;22;20367;-91
2023/07/27 02:57:07;;;;;;;0.93;0.75;;;;;;;;;;13005338;22;20366;-90
2023/07/27 03:02:11;;;;;;;1.27;0.88;;;;;;;;;;12980742;22;20362;-91
2023/07/27 03:07:13;;;;;;;1.70;0.60;;;;;;;;;;12975394;22;20359;-91
2023/07/27 03:12:15;;;;;;;1.35;0.70;;;;;;;;;;12983184;22;20358;-91
2023/07/27 03:17:19;;;;;;;1.42;0.90;;;;;;;;;;12979114;22;20367;-90
2023/07/27 03:22:22;;;;;;;2.83;0.77;;;;;;;;;;12983526;22;20366;-92
2023/07/27 03:27:24;;;;;;;2.10;0.77;;;;;;;;;;12989086;22;20428;-91
2023/07/27 03:32:27;;;;;;;1.27;0.65;;;;;;;;;;12971952;22;20366;-91
2023/07/27 03:37:30;;;;;;;3.40;0.77;;;;;;;;;;12963057;22;20398;-90
2023/07/27 03:42:32;;;;;;;1.67;0.80;;;;;;;;;;12978471;22;20413;-91
2023/07/27 03:47:36;;;;;;;2.28;0.70;;;;;;;;;;12985477;22;20379;-91
2023/07/27 03:52:39;;;;;;;1.30;0.80;;;;;;;;;;12980250;22;20444;-91
2023/07/27 03:57:41;;;;;;;3.85;0.80;;;;;;;;;;12964724;22;20452;-91
2023/07/27 04:02:45;;;;;;;1.90;0.80;;;;;;;;;;12966194;22;20442;-91
2023/07/27 04:07:49;;;;;;;1.90;1.00;;;;;;;;;;12970793;22;20424;-90
2023/07/27 04:12:51;;;;;;;2.42;1.20;;;;;;;;;;12978912;22;20359;-92
2023/07/27 04:17:55;;;;;;;1.05;0.70;;;;;;;;;;12999729;22;20710;-92
2023/07/27 04:22:57;;;;;;;1.60;0.88;;;;;;;;;;12981454;22;20358;-92
2023/07/27 04:28:00;;;;;;;1.33;0.90;;;;;;;;;;12991033;22;20371;-91
2023/07/27 04:33:04;;;;;;;1.60;0.95;;;;;;;;;;13005833;22;20366;-91
2023/07/27 04:38:06;;;;;;;2.30;0.70;;;;;;;;;;13005259;22;20355;-91
2023/07/27 04:43:08;;;;;;;1.20;0.70;;;;;;;;;;12975879;22;20420;-91
2023/07/27 04:48:12;;;;;;;1.20;0.70;;;;;;;;;;12961510;22;20850;-90
2023/07/27 04:53:14;;;;;;;2.42;0.77;;;;;;;;;;12972117;22;20363;-91
2023/07/27 04:58:16;;;;;;;1.90;0.75;;;;;;;;;;12984274;22;20374;-90
2023/07/27 05:03:21;;;;;;;1.40;0.80;;;;;;;;;;12968505;22;20416;-92
2023/07/27 05:08:23;;;;;;;1.07;0.80;;;;;;;;;;12968772;22;20382;-90
2023/07/27 05:13:25;;;;;;;2.17;0.80;;;;;;;;;;12966273;22;20366;-89
2023/07/27 05:18:29;;;;;;;0.97;0.70;;;;;;;;;;12980442;22;20363;-91
2023/07/27 05:23:31;;;;;;;1.70;0.73;;;;;;;;;;12961653;22;20452;-91
2023/07/27 05:28:34;;;;;;;2.50;1.00;;;;;;;;;;12966184;22;20374;-91
2023/07/27 05:33:37;;;;;;;1.50;0.90;;;;;;;;;;12964032;22;20366;-91
2023/07/27 05:38:40;;;;;;;0.90;0.70;;;;;;;;;;12966381;22;20366;-90
2023/07/27 05:43:42;;;;;;;0.93;0.77;;;;;;;;;;12981514;22;20747;-91
2023/07/27 05:48:46;;;;;;;0.93;0.63;;;;;;;;;;12985731;22;20447;-91
2023/07/27 05:53:48;;;;;;;2.17;0.63;;;;;;;;;;12973949;22;20428;-91
2023/07/27 05:58:51;;;;;;;1.42;0.63;;;;;;;;;;12978827;22;20374;-90
2023/07/27 06:03:54;;;;;;;3.20;0.77;;;;;;;;;;12972098;22;20444;-91
2023/07/27 06:08:57;;;;;;;1.20;0.60;;;;;;;;;;12978359;22;20383;-92
2023/07/27 06:13:59;;;;;;;2.15;0.50;;;;;;;;;;12983333;22;20420;-90
2023/07/27 06:19:03;;;;;;;1.80;0.75;;;;;;;;;;12976224;22;20401;-89
2023/07/27 06:24:07;;;;;;;0.68;0.60;;;;;;;;;;12966924;22;20389;-89
2023/07/27 06:29:10;;;;;;;0.80;0.50;;;;;;;;;;12945970;22;20405;-90
2023/07/27 06:34:13;;;;;;;1.20;0.80;;;;;;;;;;12969293;22;20370;-89
2023/07/27 06:39:16;;;;;;;1.15;0.60;;;;;;;;;;12985882;22;20375;-91
2023/07/27 06:44:18;;;;;;;2.30;0.57;;;;;;;;;;12985425;22;20374;-89
2023/07/27 07:38:40;;;;;;;1.50;0.60;;;;;;;;;;12984738;22;20436;-89
2023/07/27 07:43:42;;;;;;;1.15;0.70;;;;;;;;;;12976364;22;20363;-90
2023/07/27 07:48:44;;;;;;;2.10;0.50;;;;;;;;;;12981373;22;20382;-91
2023/07/27 07:53:48;;;;;;;0.98;0.50;;;;;;;;;;12979912;22;20429;-89
2023/07/27 07:58:51;;;;;;;1.10;0.40;;;;;;;;;;12981578;22;20359;-88
2023/07/27 08:03:53;;;;;;;1.52;0.50;;;;;;;;;;12982191;22;20367;-90
2023/07/27 08:08:57;;;;;;;1.52;0.75;;;;;;;;;;12980121;22;20943;-89
2023/07/27 08:14:01;;;;;;;1.30;0.50;;;;;;;;;;12978519;22;20363;-90
2023/07/27 08:19:04;;;;;;;1.70;0.50;;;;;;;;;;12981290;22;20367;-89
2023/07/27 08:24:08;;;;;;;0.98;0.60;;;;;;;;;;12980411;22;20372;-88
2023/07/27 08:29:10;;;;;;;1.03;0.50;;;;;;;;;;12978718;22;20379;-89
2023/07/27 08:34:12;;;;;;;2.10;0.57;;;;;;;;;;12977000;22;20452;-84
2023/07/27 08:39:16;;;;;;;0.80;0.40;;;;;;;;;;12975406;22;20798;-86
2023/07/27 08:44:19;;;;;;;0.65;0.50;;;;;;;;;;12974015;22;20366;-87
2023/07/27 08:49:21;;;;;;;0.80;0.47;;;;;;;;;;12973868;22;20447;-82
2023/07/27 08:54:25;;;;;;;1.42;0.68;;;;;;;;;;12972599;22;20409;-82
2023/07/27 08:59:27;;;;;;;1.52;0.50;;;;;;;;;;12972520;22;20358;-82
2023/07/27 09:04:29;;;;;;;0.40;0.40;;;;;;;;;;12971387;22;20366;-81
2023/07/27 09:09:33;;;;;;;0.70;0.50;;;;;;;;;;12971200;22;20382;-81
2023/07/27 09:14:36;;;;;;;1.30;0.50;;;;;;;;;;12976313;22;20393;-81
2023/07/27 09:19:40;;;;;;;1.40;0.70;;;;;;;;;;12976698;22;20417;-81
2023/07/27 09:24:44;;;;;;;1.30;0.40;;;;;;;;;;12977724;22;20416;-81
2023/07/27 09:29:46;;;;;;;1.57;0.70;;;;;;;;;;12976850;22;20382;-80
2023/07/27 09:34:55;;;;;;;0.40;0.40;;;;;;;;;;12975363;22;20397;-81
2023/07/27 09:40:09;;;;;;;0.40;0.40;;;;;;;;;;12974569;22;20695;-80
2023/07/27 09:45:12;;;;;;;1.52;0.68;;;;;;;;;;12976711;22;20367;-81
2023/07/27 09:50:16;;;;;;;1.08;0.50;;;;;;;;;;12977410;22;20444;-81
2023/07/27 09:55:20;;;;;;;1.02;0.60;;;;;;;;;;12975846;22;20694;-79
2023/07/27 10:00:22;;;;;;;0.60;0.43;;;;;;;;;;12977163;22;20691;-80
2023/07/27 10:05:25;;;;;;;1.43;0.50;;;;;;;;;;12976886;22;20432;-80
2023/07/27 10:10:38;;;;;;;0.30;0.30;;;;;;;;;;12978808;22;20460;-80
2023/07/27 10:15:43;;;;;;;1.10;0.43;;;;;;;;;;12980583;22;20358;-81
2023/07/27 10:20:45;;;;;;;0.50;0.50;;;;;;;;;;12981079;22;20753;-80
2023/07/27 10:26:07;;;;;;;0.57;0.40;;;;;;;;;;12981593;22;20397;-81
2023/07/27 10:31:30;;;;;;;0.60;0.50;;;;;;;;;;12980039;22;20383;-80
2023/07/27 10:36:51;;;;;;;0.50;0.40;;;;;;;;;;12970366;22;20432;-80
2023/07/27 10:42:03;;;;;;;0.60;0.50;;;;;;;;;;12978958;22;20393;-80
2023/07/27 10:47:08;;;;;;;0.90;0.35;;;;;;;;;;12980083;22;20366;-81
2023/07/27 10:52:14;;;;;;;0.50;0.40;;;;;;;;;;12980193;22;20414;-89
2023/07/27 10:57:20;;;;;;;0.60;0.50;;;;;;;;;;12990856;22;20379;-90
2023/07/27 11:02:24;;;;;;;0.93;0.40;;;;;;;;;;12995499;22;20375;-90
2023/07/27 11:07:28;;;;;;;0.60;0.55;;;;;;;;;;12978475;22;20436;-92
2023/07/27 11:12:32;;;;;;;1.40;0.50;;;;;;;;;;12976642;22;20460;-92
2023/07/27 11:17:35;;;;;;;0.70;0.50;;;;;;;;;;12974092;22;20379;-91
2023/07/27 11:22:40;;;;;;;1.45;0.70;;;;;;;;;;12996842;22;20955;-91
2023/07/27 11:27:49;;;;;;;1.13;0.60;;;;;;;;;;12962653;22;20896;-91
2023/07/27 11:32:58;;;;;;;0.87;0.70;;;;;;;;;;12967993;22;20417;-90
2023/07/27 11:38:01;;;;;;;0.95;0.60;;;;;;;;;;12956472;22;20371;-90
2023/07/27 11:43:05;;;;;;;1.77;0.73;;;;;;;;;;12946198;22;20405;-90
2023/07/27 11:48:09;;;;;;;0.97;0.60;;;;;;;;;;12969099;22;20860;-90
2023/07/27 11:53:11;;;;;;;1.08;0.82;;;;;;;;;;12983012;22;20379;-91
2023/07/27 11:58:15;;;;;;;1.00;0.60;;;;;;;;;;12960756;22;20945;-91
2023/07/27 12:03:20;;;;;;;1.50;0.50;;;;;;;;;;12984009;22;20850;-89
2023/07/27 12:08:23;;;;;;;0.60;0.52;;;;;;;;;;12984677;22;20358;-90
2023/07/27 12:13:27;;;;;;;1.10;0.60;;;;;;;;;;12991358;22;21069;-91
2023/07/27 12:18:31;;;;;;;0.80;0.70;;;;;;;;;;12980865;22;20400;-89
2023/07/27 12:23:33;;;;;;;1.57;0.80;;;;;;;;;;12983020;22;20464;-90
2023/07/27 12:28:37;;;;;;;1.27;0.80;;;;;;;;;;12982822;22;20367;-90
2023/07/27 12:33:39;;;;;;;0.93;0.63;;;;;;;;;;12982845;22;20444;-90
2023/07/27 12:38:42;;;;;;;1.58;0.80;;;;;;;;;;12983092;22;20397;-90
2023/07/27 12:43:46;;;;;;;1.08;0.70;;;;;;;;;;12983658;22;20367;-89
2023/07/27 12:48:48;;;;;;;1.47;0.67;;;;;;;;;;12984117;22;20378;-90
2023/07/27 12:53:50;;;;;;;3.30;0.90;;;;;;;;;;12981877;22;20390;-90
2023/07/27 12:58:54;;;;;;;2.53;0.90;;;;;;;;;;12981553;22;20358;-89
2023/07/27 13:03:56;;;;;;;2.90;0.90;;;;;;;;;;12981330;22;20393;-89
2023/07/27 13:08:59;;;;;;;1.23;0.70;;;;;;;;;;12981174;22;20553;-90
2023/07/27 13:14:03;;;;;;;0.80;0.67;;;;;;;;;;12982854;22;20437;-89
2023/07/27 13:19:05;;;;;;;0.57;0.50;;;;;;;;;;12993784;22;20882;-89
2023/07/27 13:24:07;;;;;;;1.60;0.90;;;;;;;;;;12986620;22;20374;-90
2023/07/27 13:29:15;;;;;;;1.58;0.65;;;;;;;;;;12983077;22;20366;-89
2023/07/27 13:34:17;;;;;;;0.90;0.73;;;;;;;;;;12982510;22;20451;-89
2023/07/27 13:39:20;;;;;;;1.20;0.60;;;;;;;;;;12985210;22;20899;-90
2023/07/27 13:44:24;;;;;;;0.70;0.67;;;;;;;;;;12981865;22;20366;-90
2023/07/27 13:49:28;;;;;;;1.53;0.63;;;;;;;;;;12980958;22;20390;-89
2023/07/27 13:54:31;;;;;;;1.50;0.60;;;;;;;;;;12981018;22;20382;-89
2023/07/27 13:59:34;;;;;;;1.17;0.50;;;;;;;;;;13002398;22;20378;-89
2023/07/27 14:04:37;;;;;;;0.90;0.60;;;;;;;;;;12982218;22;20367;-90
2023/07/27 14:09:39;;;;;;;1.38;0.68;;;;;;;;;;12982604;22;20390;-89
2023/07/27 14:14:43;;;;;;;1.35;0.63;;;;;;;;;;12990331;22;20379;-89
2023/07/27 14:19:46;;;;;;;1.52;0.80;;;;;;;;;;12987607;22;20386;-89
2023/07/27 14:24:48;;;;;;;2.35;0.63;;;;;;;;;;12988108;22;20370;-88
2023/07/27 14:29:52;;;;;;;1.27;0.52;;;;;;;;;;13024745;22;20900;-89
2023/07/27 14:34:55;;;;;;;1.33;0.60;;;;;;;;;;12990948;22;20406;-90
2023/07/27 14:39:57;;;;;;;1.80;0.68;;;;;;;;;;12979427;22;20367;-92
2023/07/27 14:45:01;;;;;;;1.70;0.70;;;;;;;;;;12974784;22;20363;-90
2023/07/27 14:50:04;;;;;;;0.90;0.70;;;;;;;;;;12970948;22;20727;-90
2023/07/27 14:55:07;;;;;;;0.70;0.70;;;;;;;;;;12972936;22;20467;-90
2023/07/27 15:00:12;;;;;;;0.77;0.57;;;;;;;;;;12976164;22;20367;-88
2023/07/27 15:05:17;;;;;;;0.85;0.57;;;;;;;;;;12973716;22;20395;-90
2023/07/27 15:10:19;;;;;;;0.55;0.55;;;;;;;;;;12975139;22;20359;-90
2023/07/27 15:15:23;;;;;;;0.82;0.63;;;;;;;;;;12994919;22;20383;-92
2023/07/27 15:20:28;;;;;;;1.08;0.70;;;;;;;;;;12965743;22;20387;-89
2023/07/27 15:25:31;;;;;;;1.17;0.70;;;;;;;;;;12960884;22;21033;-88
2023/07/27 15:30:35;;;;;;;1.40;0.70;;;;;;;;;;12964666;22;20656;-89
2023/07/27 15:35:38;;;;;;;1.20;0.60;;;;;;;;;;12975046;22;20405;-90
2023/07/27 15:40:41;;;;;;;1.00;0.70;;;;;;;;;;12980538;22;20425;-87
2023/07/27 15:45:45;;;;;;;1.60;0.70;;;;;;;;;;12978348;22;20382;-91
2023/07/27 15:50:48;;;;;;;1.38;0.43;;;;;;;;;;12966649;22;20710;-90
2023/07/27 15:55:51;;;;;;;1.02;0.70;;;;;;;;;;12977966;22;20379;-90
2023/07/27 16:00:58;;;;;;;1.33;0.60;;;;;;;;;;12965880;22;20383;-92
2023/07/27 16:06:04;;;;;;;2.58;0.70;;;;;;;;;;12966865;22;20746;-90
2023/07/27 16:11:10;;;;;;;1.90;0.63;;;;;;;;;;12966213;22;20386;-91
2023/07/27 16:16:14;;;;;;;1.70;0.73;;;;;;;;;;12966532;22;20436;-90
2023/07/27 16:21:16;;;;;;;1.30;0.73;;;;;;;;;;12966101;22;20485;-91
2023/07/27 16:26:19;;;;;;;1.00;0.90;;;;;;;;;;12965339;22;20404;-90
2023/07/27 16:31:22;;;;;;;1.25;0.70;;;;;;;;;;12964037;22;20386;-90
2023/07/27 16:36:25;;;;;;;0.77;0.70;;;;;;;;;;12966056;22;20437;-89
2023/07/27 16:41:27;;;;;;;1.00;0.60;;;;;;;;;;12965862;22;20394;-91
2023/07/27 16:46:31;;;;;;;1.00;0.70;;;;;;;;;;12986686;22;20477;-90
2023/07/27 16:51:33;;;;;;;0.63;0.50;;;;;;;;;;12968726;22;20417;-88
2023/07/27 16:56:36;;;;;;;1.33;0.70;;;;;;;;;;12968384;22;20442;-91
2023/07/27 17:01:40;;;;;;;1.20;0.75;;;;;;;;;;12968559;22;20886;-91
2023/07/27 17:06:42;;;;;;;1.58;0.80;;;;;;;;;;12994951;22;20397;-91
2023/07/27 17:11:44;;;;;;;1.45;0.60;;;;;;;;;;12999061;22;21062;-91
2023/07/27 17:16:48;;;;;;;1.25;0.60;;;;;;;;;;12977134;22;20366;-91
2023/07/27 17:21:50;;;;;;;0.90;0.70;;;;;;;;;;12996618;22;20688;-90
2023/07/27 17:26:53;;;;;;;2.53;0.70;;;;;;;;;;12974957;22;20363;-90
2023/07/27 17:31:57;;;;;;;1.42;0.70;;;;;;;;;;12977600;22;20383;-90
2023/07/27 17:36:59;;;;;;;1.20;0.70;;;;;;;;;;12978953;22;20370;-91
2023/07/27 17:42:01;;;;;;;1.13;0.60;;;;;;;;;;13012670;22;20355;-92
2023/07/27 17:47:06;;;;;;;1.35;0.68;;;;;;;;;;12995288;22;20358;-90
2023/07/27 17:52:08;;;;;;;2.80;0.85;;;;;;;;;;13006360;22;20472;-90
2023/07/27 17:57:10;;;;;;;1.33;0.80;;;;;;;;;;12978507;22;20363;-91
2023/07/27 18:02:14;;;;;;;1.00;0.60;;;;;;;;;;12977928;22;20432;-90
2023/07/27 18:07:17;;;;;;;1.80;0.70;;;;;;;;;;12973557;22;20413;-91
2023/07/27 18:12:19;;;;;;;1.42;0.70;;;;;;;;;;12971327;22;20461;-90
2023/07/27 18:17:23;;;;;;;1.63;0.82;;;;;;;;;;12972311;22;20495;-91
2023/07/27 18:22:27;;;;;;;1.40;0.82;;;;;;;;;;12979610;22;20397;-89
2023/07/27 18:27:29;;;;;;;1.03;0.80;;;;;;;;;;12981778;22;20367;-90
2023/07/27 18:32:33;;;;;;;1.60;0.70;;;;;;;;;;12985470;22;20409;-91
2023/07/27 18:37:36;;;;;;;0.80;0.60;;;;;;;;;;12986884;22;20374;-90
2023/07/27 18:42:38;;;;;;;1.52;0.60;;;;;;;;;;12985562;22;20493;-90
2023/07/27 18:47:42;;;;;;;1.05;0.88;;;;;;;;;;13001323;22;20846;-90
2023/07/27 18:52:44;;;;;;;0.67;0.63;;;;;;;;;;12983837;22;20504;-91
2023/07/27 18:57:46;;;;;;;1.10;0.60;;;;;;;;;;13021944;22;20362;-91
2023/07/27 19:02:50;;;;;;;1.60;0.63;;;;;;;;;;12986138;22;20363;-90
2023/07/27 19:07:52;;;;;;;1.03;0.63;;;;;;;;;;13007429;22;20425;-90
2023/07/27 19:12:55;;;;;;;1.10;0.80;;;;;;;;;;12986178;22;20382;-90
2023/07/27 19:17:59;;;;;;;1.10;0.85;;;;;;;;;;12984682;22;20425;-89
2023/07/27 19:23:01;;;;;;;1.20;0.80;;;;;;;;;;12984686;22;20363;-91
2023/07/27 19:28:03;;;;;;;1.58;0.70;;;;;;;;;;12982803;22;20394;-91
2023/07/27 19:33:08;;;;;;;0.75;0.75;;;;;;;;;;12984819;22;20440;-91
2023/07/27 19:38:11;;;;;;;1.50;0.80;;;;;;;;;;12982746;22;20362;-91
2023/07/27 19:43:14;;;;;;;1.00;0.70;;;;;;;;;;12982760;22;20428;-91
2023/07/27 19:48:18;;;;;;;1.42;0.60;;;;;;;;;;12984588;22;20363;-91
2023/07/27 19:53:20;;;;;;;1.43;0.70;;;;;;;;;;12982433;22;20436;-91
2023/07/27 19:58:23;;;;;;;1.57;0.67;;;;;;;;;;12991712;22;20421;-92
2023/07/27 20:03:27;;;;;;;4.15;1.02;;;;;;;;;;13017502;22;20420;-92
2023/07/27 20:08:33;;;;;;;3.10;1.50;;;;;;;;;;12993131;22;20359;-92
2023/07/27 20:13:35;;;;;;;3.70;1.40;;;;;;;;;;12985033;22;20378;-91
2023/07/27 20:18:42;;;;;;;2.40;1.15;;;;;;;;;;12985229;22;20575;-92
2023/07/27 20:23:44;;;;;;;2.70;1.10;;;;;;;;;;12996692;22;20440;-92
2023/07/27 20:28:50;;;;;;;1.52;1.08;;;;;;;;;;12978559;22;20437;-92
2023/07/27 20:33:54;;;;;;;2.67;1.30;;;;;;;;;;13000216;22;20442;-92
2023/07/27 20:38:57;;;;;;;1.90;1.40;;;;;;;;;;12982840;22;20371;-92
2023/07/27 20:43:59;;;;;;;1.60;1.40;;;;;;;;;;13001798;22;20680;-91
2023/07/27 20:49:03;;;;;;;2.53;1.48;;;;;;;;;;12983913;22;20371;-92
2023/07/27 20:54:05;;;;;;;2.40;1.30;;;;;;;;;;12981459;22;20387;-93
2023/07/27 20:59:08;;;;;;;2.53;1.63;;;;;;;;;;12980328;22;20367;-92
2023/07/27 21:04:12;;;;;;;2.72;1.60;;;;;;;;;;12995617;22;20421;-92
2023/07/27 21:09:14;;;;;;;1.97;1.60;;;;;;;;;;12985413;22;20374;-92
2023/07/27 21:14:17;;;;;;;2.53;1.17;;;;;;;;;;12991546;22;20387;-92
2023/07/27 21:19:21;;;;;;;2.08;1.45;;;;;;;;;;12992060;22;20397;-92
2023/07/27 21:24:25;;;;;;;3.83;1.40;;;;;;;;;;12988385;22;20400;-91
2023/07/27 21:29:28;;;;;;;2.25;1.48;;;;;;;;;;13013404;22;20382;-91
2023/07/27 21:34:31;;;;;;;2.65;1.77;;;;;;;;;;13000444;22;20410;-91
2023/07/27 21:39:34;;;;;;;3.30;1.43;;;;;;;;;;12991788;22;20838;-93
2023/07/27 21:44:37;;;;;;;3.90;1.80;;;;;;;;;;12995452;22;20416;-91
2023/07/27 21:49:41;;;;;;;3.83;1.80;;;;;;;;;;12989493;22;20382;-92
2023/07/27 21:54:44;;;;;;;3.37;2.07;;;;;;;;;;13013458;22;20492;-92
2023/07/27 21:59:48;;;;;;;2.45;1.77;;;;;;;;;;12993198;22;20366;-91
2023/07/27 22:04:54;;;;;;;3.03;1.73;;;;;;;;;;13025033;22;20362;-91
2023/07/27 22:09:56;;;;;;;3.10;2.00;;;;;;;;;;13019387;22;20769;-91
2023/07/27 22:14:58;;;;;;;2.92;1.80;;;;;;;;;;13019905;22;20925;-93
2023/07/27 22:20:02;;;;;;;3.00;2.20;;;;;;;;;;13007863;22;20446;-92
2023/07/27 22:25:06;;;;;;;2.70;1.80;;;;;;;;;;12996181;22;20370;-91
2023/07/27 22:30:12;;;;;;;3.60;1.97;;;;;;;;;;13002922;22;20436;-92
2023/07/27 22:35:16;;;;;;;3.08;1.90;;;;;;;;;;12968545;22;20735;-92
2023/07/27 22:40:18;;;;;;;2.50;1.67;;;;;;;;;;12994091;22;20808;-93
2023/07/27 22:45:21;;;;;;;4.13;1.80;;;;;;;;;;12996872;22;20451;-92
2023/07/27 22:50:24;;;;;;;2.83;1.80;;;;;;;;;;12995738;22;20691;-91
2023/07/27 22:55:27;;;;;;;2.83;1.97;;;;;;;;;;12993028;22;20378;-93
2023/07/27 23:00:30;;;;;;;3.22;2.20;;;;;;;;;;13024374;22;20363;-93
2023/07/27 23:05:34;;;;;;;3.88;2.60;;;;;;;;;;13018401;22;20359;-91
2023/07/27 23:10:38;;;;;;;8.77;4.35;;;;;;;;;;13012194;22;20829;-92
2023/07/27 23:15:41;;;;;;;3.97;2.70;;;;;;;;;;12994360;22;20435;-92
2023/07/27 23:20:45;;;;;;;4.68;3.10;;;;;;;;;;13016983;22;20366;-92
2023/07/27 23:25:47;;;;;;;4.57;3.10;;;;;;;;;;12997170;22;20831;-91
2023/07/27 23:30:50;;;;;;;4.50;3.20;;;;;;;;;;12996136;22;20397;-91
2023/07/27 23:35:53;;;;;;;5.63;3.28;;;;;;;;;;12995362;22;20387;-92
2023/07/27 23:40:56;;;;;;;4.45;2.97;;;;;;;;;;12997057;22;20367;-92
2023/07/27 23:45:58;;;;;;;4.80;3.08;;;;;;;;;;12995954;22;20359;-92
2023/07/27 23:51:02;;;;;;;5.07;3.30;;;;;;;;;;12995800;22;20371;-92
2023/07/27 23:56:05;;;;;;;3.77;2.83;;;;;;;;;;12996921;22;20382;-92
